Time;durP1;ratioP1;P1;durP2;ratioP2;P2;SDS_P1;SDS_P2;PMS_P1;PMS_P2;Temp;Humidity;BMP_temperature;BMP_pressure;BME280_temperature;BME280_humidity;BME280_pressure;Samples;Min_cycle;Max_cycle;Signal;HPM_P1;HPM_P2
2022/05/25 00:01:50;;;;;;;10.68;3.35;;;8.90;99.90;;;;;;5015260;28;20053;-80
2022/05/25 00:04:20;;;;;;;8.20;3.47;;;8.90;99.90;;;;;;5016022;28;20050;-79
2022/05/25 00:06:48;;;;;;;6.85;3.10;;;8.90;99.90;;;;;;5015640;28;20361;-80
2022/05/25 00:09:16;;;;;;;9.38;3.78;;;8.90;99.90;;;;;;5015659;28;20053;-78
2022/05/25 00:11:43;;;;;;;;;;;8.90;99.90;;;;;;5014499;28;20460;-81
2022/05/25 00:14:12;;;;;;;11.98;3.22;;;8.80;99.90;;;;;;5015556;28;19921;-78
2022/05/25 00:16:40;;;;;;;7.15;2.90;;;8.80;99.90;;;;;;5014755;28;20049;-79
2022/05/25 00:21:54;;;;;;;9.15;2.63;;;8.80;99.90;;;;;;5015650;28;20050;-78
2022/05/25 00:24:21;;;;;;;13.13;3.30;;;8.80;99.90;;;;;;5014586;28;20064;-81
2022/05/25 00:26:49;;;;;;;7.55;3.35;;;8.80;99.90;;;;;;5015300;28;20413;-80
2022/05/25 00:29:17;;;;;;;8.40;3.25;;;8.80;99.90;;;;;;5015302;28;20046;-80
2022/05/25 00:31:44;;;;;;;10.52;3.22;;;8.70;99.90;;;;;;4996849;28;20045;-81
2022/05/25 00:34:12;;;;;;;5.95;2.80;;;8.70;99.90;;;;;;5015187;28;20041;-79
2022/05/25 00:36:40;;;;;;;6.00;2.70;;;8.70;99.90;;;;;;5015473;28;20469;-82
2022/05/25 00:39:08;;;;;;;6.43;2.88;;;8.70;99.90;;;;;;5014273;28;20461;-80
2022/05/25 00:41:36;;;;;;;8.35;2.47;;;8.60;99.90;;;;;;4982340;28;20473;-79
2022/05/25 00:44:04;;;;;;;9.20;2.97;;;8.60;99.90;;;;;;5015112;28;20054;-81
2022/05/25 00:46:35;;;;;;;6.68;3.13;;;8.60;99.90;;;;;;5013056;28;20038;-82
2022/05/25 00:49:15;;;;;;;9.38;3.10;;;8.50;99.90;;;;;;5015532;28;20054;-80
2022/05/25 00:51:48;;;;;;;13.93;3.03;;;8.40;99.90;;;;;;5014234;28;20042;-80
2022/05/25 00:54:32;;;;;;;8.80;3.20;;;8.40;99.90;;;;;;5015129;28;20061;-79
2022/05/25 00:57:05;;;;;;;5.57;2.47;;;8.40;99.90;;;;;;4997809;28;20406;-78
2022/05/25 00:59:40;;;;;;;8.38;2.10;;;8.40;99.90;;;;;;5013103;28;20062;-81
2022/05/25 01:02:08;;;;;;;7.70;2.67;;;8.40;99.90;;;;;;5015306;28;20054;-81
2022/05/25 01:04:35;;;;;;;8.63;2.00;;;8.30;99.90;;;;;;5013913;28;20377;-79
2022/05/25 01:07:42;;;;;;;6.78;2.10;;;8.30;99.90;;;;;;5014839;28;20053;-78
2022/05/25 01:10:22;;;;;;;5.57;2.05;;;8.30;99.90;;;;;;5015053;28;20049;-80
2022/05/25 01:13:08;;;;;;;10.63;2.30;;;8.30;99.90;;;;;;5014053;28;20041;-79
2022/05/25 01:16:12;;;;;;;11.15;2.17;;;8.30;99.90;;;;;;5013824;28;20053;-80
2022/05/25 01:19:13;;;;;;;10.70;1.98;;;8.30;99.90;;;;;;5013941;28;20500;-79
2022/05/25 01:21:50;;;;;;;7.15;2.00;;;8.30;99.90;;;;;;4997845;28;20057;-79
2022/05/25 01:24:26;;;;;;;5.55;2.10;;;8.30;99.90;;;;;;5015358;28;20054;-80
2022/05/25 01:27:12;;;;;;;13.50;2.35;;;8.30;99.90;;;;;;5014233;28;20492;-81
2022/05/25 01:30:05;;;;;;;8.98;2.00;;;8.30;99.90;;;;;;4997763;28;20042;-80
2022/05/25 01:32:52;;;;;;;6.95;1.55;;;8.30;99.90;;;;;;5007348;28;20049;-79
2022/05/25 01:35:46;;;;;;;5.68;1.45;;;8.40;99.90;;;;;;5033940;28;20056;-77
2022/05/25 01:38:16;;;;;;;7.05;1.90;;;8.40;99.90;;;;;;5032649;28;20061;-77
2022/05/25 01:41:16;;;;;;;10.20;1.98;;;8.50;99.90;;;;;;5034189;28;20050;-80
2022/05/25 01:43:50;;;;;;;9.88;2.00;;;8.40;99.90;;;;;;5012706;28;20046;-79
2022/05/25 01:46:32;;;;;;;11.38;2.17;;;8.40;99.90;;;;;;5048986;28;20041;-78
2022/05/25 01:49:05;;;;;;;6.13;2.00;;;8.50;99.90;;;;;;5033554;28;20076;-82
2022/05/25 01:51:38;;;;;;;6.75;2.05;;;8.40;99.90;;;;;;5032878;28;20053;-77
2022/05/25 01:54:09;;;;;;;9.27;2.05;;;8.40;99.90;;;;;;5034465;28;20049;-77
2022/05/25 01:56:43;;;;;;;9.10;1.98;;;8.40;99.90;;;;;;5034181;28;20045;-77
2022/05/25 01:59:15;;;;;;;12.93;1.92;;;8.40;99.90;;;;;;5036871;28;20072;-80
2022/05/25 02:04:48;;;;;;;13.02;2.00;;;8.50;99.90;;;;;;5036728;28;20487;-81
2022/05/25 02:07:28;;;;;;;10.88;2.55;;;8.50;99.90;;;;;;5037821;28;20045;-80
2022/05/25 02:10:10;;;;;;;10.63;2.50;;;8.60;99.90;;;;;;5037824;28;20056;-80
2022/05/25 02:12:49;;;;;;;15.68;2.60;;;8.60;99.90;;;;;;5035874;28;20060;-81
2022/05/25 02:15:27;;;;;;;16.10;2.72;;;8.50;99.90;;;;;;5036661;28;20045;-79
2022/05/25 02:18:07;;;;;;;15.82;2.55;;;8.50;99.90;;;;;;5036572;28;20372;-80
2022/05/25 02:20:51;;;;;;;11.20;3.10;;;8.50;99.90;;;;;;5036761;28;20046;-78
2022/05/25 02:23:41;;;;;;;11.68;3.00;;;8.50;99.90;;;;;;5037398;28;20050;-77
2022/05/25 02:26:16;;;;;;;10.93;2.78;;;8.50;99.90;;;;;;5036558;28;20041;-79
2022/05/25 02:28:52;;;;;;;14.25;3.22;;;8.60;99.90;;;;;;5037530;28;20056;-81
2022/05/25 02:31:25;;;;;;;19.20;2.92;;;8.50;99.90;;;;;;5036976;28;20487;-78
2022/05/25 02:33:57;;;;;;;10.50;2.67;;;8.60;99.90;;;;;;5018902;28;20049;-78
2022/05/25 02:36:26;;;;;;;18.90;3.05;;;8.70;99.90;;;;;;5017845;28;20042;-79
2022/05/25 02:38:53;;;;;;;12.38;2.88;;;8.70;99.90;;;;;;5016192;28;20042;-79
2022/05/25 02:41:30;;;;;;;8.48;2.65;;;8.70;99.90;;;;;;5017506;28;20053;-81
2022/05/25 02:43:58;;;;;;;15.43;2.60;;;8.80;99.90;;;;;;5017338;28;20468;-80
2022/05/25 02:46:26;;;;;;;9.55;2.40;;;8.70;99.90;;;;;;5016029;28;20044;-79
2022/05/25 02:48:54;;;;;;;9.93;2.92;;;8.70;99.90;;;;;;5017369;28;20046;-80
2022/05/25 02:51:22;;;;;;;9.63;2.60;;;8.80;99.90;;;;;;5015223;28;20237;-79
2022/05/25 02:53:49;;;;;;;9.40;2.40;;;8.70;99.90;;;;;;5017251;28;20054;-82
2022/05/25 02:56:17;;;;;;;15.73;2.58;;;8.80;99.90;;;;;;5017133;28;20046;-78
2022/05/25 02:58:45;;;;;;;16.17;2.63;;;8.70;99.90;;;;;;5015910;28;20058;-82
2022/05/25 03:01:13;;;;;;;10.60;2.10;;;8.70;99.90;;;;;;5016913;28;20069;-80
2022/05/25 03:03:40;;;;;;;15.02;2.53;;;8.80;99.90;;;;;;5017087;28;20052;-80
2022/05/25 03:06:08;;;;;;;12.43;2.72;;;8.70;99.90;;;;;;4998590;28;20065;-79
2022/05/25 03:08:36;;;;;;;12.35;2.08;;;8.70;99.90;;;;;;5015910;28;20046;-79
2022/05/25 03:11:05;;;;;;;15.90;2.33;;;8.70;99.90;;;;;;5016279;28;20046;-81
2022/05/25 03:13:32;;;;;;;7.75;2.22;;;8.80;99.90;;;;;;5016812;28;20041;-80
2022/05/25 03:16:00;;;;;;;9.02;1.95;;;8.90;99.90;;;;;;5016809;28;20057;-80
2022/05/25 03:18:28;;;;;;;;;;;8.90;99.90;;;;;;5015984;28;20042;-79
2022/05/25 03:20:56;;;;;;;10.43;2.13;;;8.90;99.90;;;;;;5016626;28;19929;-79
2022/05/25 03:23:23;;;;;;;6.13;1.83;;;8.90;99.90;;;;;;5016543;28;20038;-81
2022/05/25 03:25:51;;;;;;;12.15;2.03;;;8.90;99.90;;;;;;5015543;28;20053;-80
2022/05/25 03:28:20;;;;;;;11.38;1.88;;;9.00;99.90;;;;;;5016477;28;20046;-81
2022/05/25 03:30:48;;;;;;;13.02;1.80;;;9.00;99.90;;;;;;5016651;28;20046;-79
2022/05/25 03:33:16;;;;;;;14.63;1.90;;;8.90;99.90;;;;;;5015078;28;20046;-78
2022/05/25 03:35:44;;;;;;;11.43;1.80;;;8.90;99.90;;;;;;5016362;28;20129;-79
2022/05/25 03:38:12;;;;;;;;;;;8.90;99.90;;;;;;5015530;28;20053;-81
2022/05/25 03:40:40;;;;;;;9.48;1.90;;;8.90;99.90;;;;;;5016294;28;19921;-80
2022/05/25 03:43:08;;;;;;;;;;;8.90;99.90;;;;;;5016516;28;20046;-80
2022/05/25 03:45:36;;;;;;;12.95;1.83;;;8.90;99.90;;;;;;5015067;28;19921;-78
2022/05/25 03:48:07;;;;;;;11.40;1.63;;;8.90;99.90;;;;;;5015991;28;20053;-81
2022/05/25 03:50:36;;;;;;;6.88;1.50;;;8.80;99.90;;;;;;5016468;28;20065;-80
2022/05/25 03:53:03;;;;;;;12.90;2.00;;;8.80;99.90;;;;;;4981600;28;20042;-78
2022/05/25 03:55:31;;;;;;;7.57;2.17;;;8.80;99.90;;;;;;4998776;28;20045;-78
2022/05/25 03:57:58;;;;;;;9.77;2.00;;;8.80;99.90;;;;;;5014945;28;20053;-81
2022/05/25 04:00:26;;;;;;;16.58;2.30;;;8.80;99.90;;;;;;5015789;28;20060;-81
2022/05/25 04:02:56;;;;;;;9.18;2.10;;;8.80;99.90;;;;;;5016340;28;20050;-80
2022/05/25 04:05:25;;;;;;;9.20;2.00;;;8.80;99.90;;;;;;5014682;28;20385;-78
2022/05/25 04:07:55;;;;;;;8.32;1.75;;;8.80;99.90;;;;;;5015580;28;20050;-81
2022/05/25 04:10:28;;;;;;;9.35;1.95;;;8.80;99.90;;;;;;5015671;28;20053;-78
2022/05/25 04:12:56;;;;;;;7.40;1.83;;;8.90;99.90;;;;;;5014496;28;20065;-77
2022/05/25 04:15:26;;;;;;;14.02;1.98;;;8.90;99.90;;;;;;5015585;28;20042;-81
2022/05/25 04:17:55;;;;;;;4.47;2.00;;;8.90;99.90;;;;;;5015020;28;20054;-77
2022/05/25 04:20:24;;;;;;;;;;;9.00;99.90;;;;;;5016094;28;20430;-80
2022/05/25 04:22:52;;;;;;;5.72;1.80;;;9.00;99.90;;;;;;5015748;28;19925;-80
2022/05/25 04:25:23;;;;;;;7.45;1.98;;;9.00;99.90;;;;;;4997074;28;20508;-81
2022/05/25 04:27:53;;;;;;;9.55;1.92;;;9.00;99.90;;;;;;5015292;28;20042;-79
2022/05/25 04:30:26;;;;;;;8.63;1.80;;;9.00;99.90;;;;;;5015783;28;20485;-80
2022/05/25 04:32:57;;;;;;;10.82;1.98;;;9.10;99.90;;;;;;5014106;28;20124;-79
2022/05/25 04:35:26;;;;;;;6.13;1.45;;;9.10;99.90;;;;;;5035384;28;20460;-78
2022/05/25 04:37:54;;;;;;;6.25;1.60;;;9.10;99.90;;;;;;5033797;28;20046;-79
2022/05/25 04:40:30;;;;;;;6.35;1.50;;;9.20;99.90;;;;;;5034467;28;20060;-80
2022/05/25 04:43:00;;;;;;;8.82;1.48;;;9.20;99.90;;;;;;5034424;28;20045;-78
2022/05/25 04:45:28;;;;;;;6.60;1.63;;;9.20;99.90;;;;;;5034166;28;20049;-78
2022/05/25 04:47:58;;;;;;;8.63;1.60;;;9.30;99.90;;;;;;5035002;28;20049;-80
2022/05/25 04:50:28;;;;;;;5.30;1.58;;;9.30;99.90;;;;;;5050439;28;20045;-80
2022/05/25 04:52:59;;;;;;;6.25;1.40;;;9.40;99.90;;;;;;5033704;28;20045;-80
2022/05/25 04:58:40;;;;;;;9.23;1.73;;;9.50;99.90;;;;;;5033650;28;20372;-78
2022/05/25 05:01:10;;;;;;;7.20;1.45;;;9.50;99.90;;;;;;5035314;28;20056;-79
2022/05/25 05:03:38;;;;;;;7.78;1.40;;;9.50;99.90;;;;;;5035191;28;20045;-78
2022/05/25 05:06:08;;;;;;;9.88;1.52;;;9.50;99.90;;;;;;5032649;28;20060;-81
2022/05/25 05:08:36;;;;;;;10.50;1.45;;;9.50;99.90;;;;;;5034647;28;20044;-80
2022/05/25 05:11:09;;;;;;;8.20;1.45;;;9.50;99.90;;;;;;5033566;28;20041;-78
2022/05/25 05:13:37;;;;;;;7.45;1.35;;;9.60;99.90;;;;;;5050646;28;20050;-80
2022/05/25 05:16:08;;;;;;;6.93;1.35;;;9.50;99.90;;;;;;5034542;28;20038;-78
2022/05/25 05:18:36;;;;;;;9.23;1.60;;;9.60;99.90;;;;;;5033698;28;20053;-78
2022/05/25 05:21:33;;;;;;;14.07;1.67;;;9.60;99.90;;;;;;5033910;28;20072;-79
2022/05/25 05:24:01;;;;;;;9.43;1.27;;;9.70;99.90;;;;;;5034514;28;20049;-78
2022/05/25 05:26:28;;;;;;;13.18;1.70;;;9.80;99.90;;;;;;5033297;28;20064;-78
2022/05/25 05:28:56;;;;;;;11.38;1.83;;;9.70;99.90;;;;;;5034330;28;20368;-78
2022/05/25 05:31:23;;;;;;;12.98;1.58;;;9.70;99.90;;;;;;5033568;28;20297;-79
2022/05/25 05:33:51;;;;;;;10.68;1.42;;;9.70;99.90;;;;;;5037644;28;20053;-78
2022/05/25 05:36:24;;;;;;;9.23;1.20;;;9.80;99.90;;;;;;5038334;28;20045;-78
2022/05/25 05:38:59;;;;;;;13.60;1.60;;;9.80;99.90;;;;;;5037210;28;20046;-76
2022/05/25 05:41:49;;;;;;;14.52;1.70;;;9.90;99.90;;;;;;5021348;28;20050;-79
2022/05/25 05:44:21;;;;;;;7.88;1.48;;;9.90;99.90;;;;;;5038450;28;20065;-77
2022/05/25 05:46:51;;;;;;;12.75;1.50;;;10.00;99.90;;;;;;5038826;28;20041;-76
2022/05/25 05:49:19;;;;;;;12.23;1.52;;;10.00;99.90;;;;;;5037112;28;20045;-79
2022/05/25 05:51:46;;;;;;;12.63;1.63;;;10.10;99.90;;;;;;5036985;28;20057;-79
2022/05/25 05:54:15;;;;;;;9.70;1.60;;;10.10;99.90;;;;;;5038323;28;20053;-77
2022/05/25 05:56:44;;;;;;;5.75;1.20;;;10.30;99.90;;;;;;5037165;28;20072;-79
2022/05/25 05:59:11;;;;;;;12.45;1.60;;;10.40;99.90;;;;;;5036018;28;20053;-77
2022/05/25 06:01:39;;;;;;;15.88;1.73;;;10.60;99.90;;;;;;5036255;28;20054;-77
2022/05/25 06:04:08;;;;;;;10.95;1.50;;;10.80;99.90;;;;;;5037818;28;20053;-79
2022/05/25 06:06:36;;;;;;;15.25;1.67;;;11.10;99.90;;;;;;5036628;28;20053;-76
2022/05/25 06:09:04;;;;;;;10.98;1.80;;;11.20;99.90;;;;;;5036568;28;20042;-77
2022/05/25 06:11:36;;;;;;;11.23;1.55;;;11.30;99.90;;;;;;5036600;28;20049;-77
2022/05/25 06:14:04;;;;;;;5.82;1.30;;;11.50;99.90;;;;;;5038003;28;20060;-78
2022/05/25 06:19:26;;;;;;;9.30;1.48;;;11.70;99.90;;;;;;5036483;28;20049;-78
2022/05/25 06:22:05;;;;;;;13.45;1.40;;;11.80;99.90;;;;;;5037724;28;20041;-77
2022/05/25 06:24:59;;;;;;;9.82;1.45;;;11.90;99.90;;;;;;5037007;28;20057;-80
2022/05/25 06:27:27;;;;;;;11.98;1.55;;;11.90;99.90;;;;;;5032574;28;20472;-79
2022/05/25 06:29:55;;;;;;;9.65;1.75;;;12.00;99.90;;;;;;5037440;28;20060;-78
2022/05/25 06:32:23;;;;;;;9.43;1.48;;;12.10;99.90;;;;;;5030092;28;20061;-79
2022/05/25 06:34:51;;;;;;;7.38;1.70;;;12.10;99.90;;;;;;5017861;28;20045;-78
2022/05/25 06:37:21;;;;;;;8.82;1.55;;;12.20;99.90;;;;;;5017388;28;20046;-79
2022/05/25 06:39:49;;;;;;;10.48;1.52;;;12.30;99.90;;;;;;5016371;28;20046;-77
2022/05/25 06:42:18;;;;;;;10.60;1.40;;;12.40;99.90;;;;;;5017565;28;20122;-77
2022/05/25 06:44:53;;;;;;;15.70;1.90;;;12.50;99.90;;;;;;4997514;28;20041;-77
2022/05/25 06:47:24;;;;;;;11.43;1.65;;;12.50;99.90;;;;;;5016912;28;20065;-77
2022/05/25 06:49:53;;;;;;;10.52;1.70;;;12.60;99.90;;;;;;5016799;28;20042;-77
2022/05/25 06:52:23;;;;;;;10.95;1.65;;;12.60;99.90;;;;;;5015918;28;20042;-80
2022/05/25 06:54:54;;;;;;;6.63;1.35;;;12.70;99.90;;;;;;4999672;28;20053;-77
2022/05/25 06:57:25;;;;;;;11.88;1.50;;;12.70;99.90;;;;;;4999617;28;20050;-77
2022/05/25 06:59:53;;;;;;;10.00;1.58;;;12.80;99.90;;;;;;5014563;28;20049;-77
2022/05/25 07:02:22;;;;;;;8.77;1.40;;;12.90;99.90;;;;;;5016667;28;20065;-79
2022/05/25 07:04:52;;;;;;;10.05;1.50;;;12.90;99.90;;;;;;4998451;28;20061;-79
2022/05/25 07:07:19;;;;;;;12.82;1.65;;;12.90;99.90;;;;;;4999611;28;20058;-78
2022/05/25 07:09:48;;;;;;;15.10;1.88;;;13.00;99.90;;;;;;5016457;28;20456;-76
2022/05/25 07:12:16;;;;;;;14.20;1.80;;;13.10;99.90;;;;;;5015485;28;20046;-79
2022/05/25 07:14:44;;;;;;;6.97;1.60;;;13.20;99.90;;;;;;4999051;28;20053;-77
2022/05/25 07:17:12;;;;;;;8.48;1.42;;;13.20;99.90;;;;;;5016397;28;20046;-79
2022/05/25 07:19:39;;;;;;;8.45;1.65;;;13.30;99.90;;;;;;5015313;28;20050;-78
2022/05/25 07:22:11;;;;;;;11.68;1.83;;;13.40;99.90;;;;;;5016340;28;20050;-79
2022/05/25 07:24:45;;;;;;;12.15;1.80;;;13.50;99.90;;;;;;4998852;28;20056;-76
2022/05/25 07:27:13;;;;;;;10.85;1.88;;;13.60;99.90;;;;;;5018873;28;20057;-77
2022/05/25 07:29:41;;;;;;;;;;;13.60;99.90;;;;;;5034186;28;20380;-77
2022/05/25 07:32:12;;;;;;;13.68;1.98;;;13.70;99.90;;;;;;5002212;28;19928;-76
2022/05/25 07:34:45;;;;;;;12.43;1.83;;;13.70;99.90;;;;;;5034187;28;20056;-79
2022/05/25 07:37:15;;;;;;;13.88;1.67;;;13.80;99.90;;;;;;5054470;28;20041;-77
2022/05/25 07:39:48;;;;;;;9.52;1.67;;;13.80;99.90;;;;;;5054771;28;20045;-77
2022/05/25 07:42:18;;;;;;;11.88;2.20;;;13.90;99.90;;;;;;5054751;28;20049;-80
2022/05/25 07:44:53;;;;;;;11.55;1.80;;;14.00;99.90;;;;;;5053961;28;20506;-78
2022/05/25 07:47:21;;;;;;;10.95;1.52;;;14.10;99.90;;;;;;5055692;28;20060;-79
2022/05/25 07:49:49;;;;;;;16.17;2.08;;;14.10;99.90;;;;;;5055646;28;20040;-79
2022/05/25 07:52:20;;;;;;;9.35;2.13;;;14.10;99.90;;;;;;5054886;28;20053;-76
2022/05/25 07:54:48;;;;;;;13.00;2.20;;;14.20;99.90;;;;;;5055401;28;20060;-78
2022/05/25 07:57:16;;;;;;;18.73;2.10;;;14.30;99.90;;;;;;5055505;28;20068;-78
2022/05/25 07:59:44;;;;;;;12.85;1.90;;;14.30;99.90;;;;;;5053608;28;20383;-78
2022/05/25 08:08:07;;;;;;;15.05;2.00;;;14.50;99.90;;;;;;5054359;28;20057;-79
2022/05/25 08:10:35;;;;;;;9.73;2.10;;;14.60;99.90;;;;;;5055359;28;20037;-78
2022/05/25 08:13:03;;;;;;;;;;;14.60;99.90;;;;;;5037131;28;20060;-77
2022/05/25 08:15:33;;;;;;;8.38;1.35;;;14.70;99.90;;;;;;5055425;28;19920;-84
2022/05/25 08:18:01;;;;;;;14.85;2.00;;;14.90;99.90;;;;;;5053404;28;20041;-81
2022/05/25 08:20:30;;;;;;;12.07;2.15;;;15.00;99.90;;;;;;5055299;28;20056;-81
2022/05/25 08:22:58;;;;;;;14.77;1.92;;;15.00;99.90;;;;;;5055235;28;20063;-81
2022/05/25 08:25:26;;;;;;;13.73;1.70;;;15.20;99.90;;;;;;5053980;28;20490;-81
2022/05/25 08:27:54;;;;;;;11.10;1.83;;;15.30;99.90;;;;;;5054625;28;20128;-83
2022/05/25 08:30:21;;;;;;;8.80;2.00;;;15.30;99.90;;;;;;5055022;28;20090;-83
2022/05/25 08:32:53;;;;;;;10.43;1.80;;;15.40;99.90;;;;;;5052692;28;20126;-79
2022/05/25 08:35:21;;;;;;;10.43;1.90;;;15.50;99.90;;;;;;5053861;28;20048;-82
2022/05/25 08:37:49;;;;;;;11.35;1.98;;;15.50;99.90;;;;;;5053692;28;20376;-79
2022/05/25 08:40:20;;;;;;;15.85;2.25;;;15.60;99.90;;;;;;5053730;28;20048;-80
2022/05/25 08:43:08;;;;;;;11.70;2.03;;;15.70;99.90;;;;;;5054786;28;20045;-80
2022/05/25 08:45:39;;;;;;;8.65;1.70;;;15.70;99.90;;;;;;5053758;28;20060;-80
2022/05/25 08:48:08;;;;;;;10.95;1.90;;;15.80;99.90;;;;;;5055229;28;20045;-84
2022/05/25 08:50:41;;;;;;;16.63;1.83;;;15.90;99.90;;;;;;5053410;28;20056;-80
2022/05/25 08:53:12;;;;;;;10.77;1.67;;;15.90;99.90;;;;;;5053517;28;20045;-80
2022/05/25 08:56:15;;;;;;;10.35;2.00;;;16.00;99.90;;;;;;5054966;28;20082;-84
2022/05/25 08:58:51;;;;;;;13.38;2.10;;;16.10;99.90;;;;;;5054014;28;20045;-82
2022/05/25 09:01:56;;;;;;;12.50;1.83;;;16.20;99.90;;;;;;5054292;28;20037;-83
2022/05/25 09:04:40;;;;;;;12.90;1.85;;;16.30;99.90;;;;;;5054117;28;20044;-81
2022/05/25 09:07:32;;;;;;;13.20;2.00;;;16.30;99.90;;;;;;5053269;28;20045;-81
2022/05/25 09:10:00;;;;;;;12.32;2.17;;;16.30;99.90;;;;;;5053703;28;20041;-81
2022/05/25 09:12:34;;;;;;;12.07;1.75;;;16.40;99.90;;;;;;5053537;28;20036;-85
2022/05/25 09:15:16;;;;;;;11.30;1.70;;;16.40;99.90;;;;;;5053152;28;20045;-83
2022/05/25 09:17:51;;;;;;;11.38;1.70;;;16.50;99.90;;;;;;5053709;28;20045;-83
2022/05/25 09:20:23;;;;;;;7.65;1.73;;;16.60;99.90;;;;;;5054374;28;20048;-84
2022/05/25 09:22:53;;;;;;;8.38;1.63;;;16.70;99.90;;;;;;5054543;28;20056;-85
2022/05/25 09:25:21;;;;;;;15.20;1.90;;;16.70;99.90;;;;;;5053310;28;20045;-85
2022/05/25 09:28:12;;;;;;;13.88;1.92;;;16.90;99.90;;;;;;5053233;28;20049;-84
2022/05/25 09:30:45;;;;;;;9.88;2.03;;;16.90;99.90;;;;;;5054138;28;20052;-80
2022/05/25 09:33:19;;;;;;;16.77;1.90;;;17.00;99.90;;;;;;5040114;28;20041;-84
2022/05/25 09:35:56;;;;;;;9.55;2.10;;;17.10;99.90;;;;;;5000710;28;20038;-81
2022/05/25 09:38:35;;;;;;;8.93;1.85;;;17.10;99.90;;;;;;5033797;28;20041;-81
2022/05/25 09:41:06;;;;;;;11.18;1.77;;;17.20;99.90;;;;;;5017615;28;20049;-83
2022/05/25 09:43:34;;;;;;;13.88;2.03;;;17.20;99.90;;;;;;5034471;28;20417;-81
2022/05/25 09:46:24;;;;;;;9.10;1.55;;;17.30;99.90;;;;;;4999690;28;20475;-84
2022/05/25 09:48:58;;;;;;;8.75;1.65;;;17.40;99.90;;;;;;5034425;28;20056;-80
2022/05/25 09:51:40;;;;;;;12.68;1.98;;;17.50;99.90;;;;;;5015867;28;20125;-84
2022/05/25 09:54:34;;;;;;;10.93;1.90;;;17.60;99.90;;;;;;5017314;28;20041;-85
2022/05/25 09:57:13;;;;;;;12.50;2.00;;;17.50;99.90;;;;;;5034164;28;20048;-80
2022/05/25 09:59:48;;;;;;;9.13;1.75;;;17.40;99.90;;;;;;5033050;28;20460;-85
2022/05/25 10:02:24;;;;;;;10.20;1.80;;;17.20;99.90;;;;;;5017151;28;20452;-82
2022/05/25 10:04:55;;;;;;;11.23;1.77;;;17.10;99.90;;;;;;5033012;28;20053;-81
2022/05/25 10:07:32;;;;;;;11.65;1.65;;;17.20;99.90;;;;;;5034499;28;20072;-80
2022/05/25 10:10:09;;;;;;;8.10;1.70;;;17.30;99.90;;;;;;5034395;28;20041;-80
2022/05/25 10:12:40;;;;;;;11.50;1.70;;;17.50;99.90;;;;;;5033135;28;20060;-79
2022/05/25 10:15:27;;;;;;;12.02;1.88;;;18.30;99.90;;;;;;5034248;28;20275;-82
2022/05/25 10:17:54;;;;;;;12.02;1.90;;;17.70;99.90;;;;;;5033908;28;20041;-83
2022/05/25 10:20:42;;;;;;;8.65;1.70;;;17.70;99.90;;;;;;5019972;28;20045;-82
2022/05/25 10:23:22;;;;;;;15.88;1.83;;;17.60;99.90;;;;;;5037523;28;20052;-84
2022/05/25 10:26:10;;;;;;;6.75;1.23;;;17.50;99.90;;;;;;5019186;28;20046;-82
2022/05/25 10:29:07;;;;;;;;;;;17.30;99.90;;;;;;5037581;28;20050;-81
2022/05/25 10:37:32;;;;;;;6.78;1.40;;;17.00;99.90;;;;;;5036557;28;20049;-81
2022/05/25 10:40:00;;;;;;;;;;;17.00;99.90;;;;;;5036361;28;20045;-83
2022/05/25 10:42:31;;;;;;;7.75;1.48;;;17.00;99.90;;;;;;5036096;28;19928;-81
2022/05/25 10:45:07;;;;;;;11.00;1.70;;;17.30;99.90;;;;;;5036308;28;20038;-85
2022/05/25 10:48:09;;;;;;;19.63;2.42;;;17.40;99.90;;;;;;5037269;28;20510;-82
2022/05/25 10:51:04;;;;;;;10.20;1.73;;;17.60;99.90;;;;;;4986507;28;20487;-82
2022/05/25 10:54:44;;;;;;;14.38;1.83;;;17.80;99.90;;;;;;5036149;28;20045;-79
2022/05/25 10:56:43;;;;;;;14.07;2.40;;;18.00;99.90;;;;;;5036723;28;20053;-84
2022/05/25 10:59:31;;;;;;;13.73;1.85;;;18.00;99.90;;;;;;5035624;28;20060;-83
2022/05/25 11:02:21;;;;;;;10.35;1.75;;;18.10;99.90;;;;;;5035365;28;20045;-85
2022/05/25 11:05:10;;;;;;;12.70;2.10;;;18.20;99.90;;;;;;5035428;28;20045;-84
2022/05/25 11:07:40;;;;;;;13.52;1.92;;;18.30;99.90;;;;;;5035705;28;20357;-83
2022/05/25 11:10:17;;;;;;;12.57;2.15;;;18.40;99.90;;;;;;5035558;28;20093;-80
2022/05/25 11:13:26;;;;;;;8.45;1.67;;;18.40;99.90;;;;;;5035834;28;20042;-83
2022/05/25 11:16:06;;;;;;;11.40;1.90;;;18.40;99.90;;;;;;4960161;28;20051;-83
2022/05/25 11:18:55;;;;;;;9.25;1.80;;;18.50;99.90;;;;;;5028695;28;20057;-82
2022/05/25 11:21:55;;;;;;;11.20;1.80;;;18.60;99.90;;;;;;5036569;28;20049;-84
2022/05/25 11:24:50;;;;;;;13.77;1.98;;;18.70;99.90;;;;;;5035557;28;20058;-83
2022/05/25 11:27:45;;;;;;;9.63;1.83;;;18.70;99.90;;;;;;5036268;28;20052;-82
2022/05/25 11:30:13;;;;;;;11.43;2.10;;;18.80;99.90;;;;;;5034348;28;20046;-85
2022/05/25 11:32:47;;;;;;;11.25;2.25;;;18.90;99.90;;;;;;5042719;28;20045;-84
2022/05/25 11:35:41;;;;;;;12.77;2.50;;;18.70;99.90;;;;;;5022436;28;20049;-82
2022/05/25 11:38:18;;;;;;;13.35;2.17;;;18.50;99.90;;;;;;5054390;28;20045;-81
2022/05/25 11:41:16;;;;;;;9.83;2.20;;;18.40;99.90;;;;;;5054673;28;20049;-85
2022/05/25 11:43:53;;;;;;;8.88;1.95;;;18.20;99.90;;;;;;5055515;28;20289;-85
2022/05/25 11:46:31;;;;;;;13.20;2.53;;;18.00;99.90;;;;;;5054519;28;20056;-81
2022/05/25 11:49:53;;;;;;;13.27;2.28;;;17.90;99.90;;;;;;5054664;28;20447;-81
2022/05/25 11:52:55;;;;;;;13.50;2.13;;;17.80;99.90;;;;;;5054251;28;20041;-83
2022/05/25 11:55:27;;;;;;;11.68;2.15;;;17.80;99.90;;;;;;5055363;28;20044;-85
2022/05/25 11:58:26;;;;;;;15.65;2.15;;;17.80;99.90;;;;;;5054319;28;20052;-82
2022/05/25 12:01:19;;;;;;;12.30;1.88;;;17.60;99.90;;;;;;5055390;28;20056;-83
2022/05/25 12:04:13;;;;;;;13.35;1.83;;;17.60;99.90;;;;;;5033321;28;20061;-85
2022/05/25 12:07:07;;;;;;;11.18;1.88;;;17.80;99.90;;;;;;5052884;28;20064;-84
2022/05/25 12:09:41;;;;;;;11.60;2.15;;;18.00;99.90;;;;;;5053353;28;20052;-84
2022/05/25 12:12:38;;;;;;;13.38;2.03;;;18.10;99.90;;;;;;5053956;28;20048;-84
2022/05/25 12:15:11;;;;;;;8.45;1.90;;;18.20;99.90;;;;;;5002651;28;20428;-83
2022/05/25 12:18:28;;;;;;;8.35;1.75;;;18.10;99.90;;;;;;5054114;28;20052;-84
2022/05/25 12:21:00;;;;;;;8.63;1.77;;;18.20;99.90;;;;;;5032734;28;20052;-86
2022/05/25 12:23:37;;;;;;;10.82;2.20;;;18.20;99.90;;;;;;5049786;28;20372;-82
2022/05/25 12:26:14;;;;;;;7.90;1.90;;;18.20;99.90;;;;;;5053311;28;20041;-84
2022/05/25 12:28:45;;;;;;;10.98;2.15;;;18.10;99.90;;;;;;5038609;28;20053;-82
2022/05/25 12:31:19;;;;;;;11.23;2.03;;;18.00;99.90;;;;;;5052900;28;20071;-83
2022/05/25 12:33:50;;;;;;;7.90;1.98;;;17.90;99.90;;;;;;5054468;28;20052;-87
2022/05/25 12:36:19;;;;;;;12.15;2.30;;;17.80;99.90;;;;;;5055767;28;20068;-86
2022/05/25 12:38:47;;;;;;;11.18;2.35;;;17.80;99.90;;;;;;5053412;28;20072;-81
2022/05/25 12:41:35;;;;;;;9.30;2.25;;;17.70;99.90;;;;;;5055708;28;20045;-87
2022/05/25 12:50:38;;;;;;;9.25;2.25;;;18.00;99.90;;;;;;5053784;28;20372;-76
2022/05/25 12:53:23;;;;;;;11.30;2.47;;;18.40;99.90;;;;;;5044858;28;20036;-79
2022/05/25 12:55:58;;;;;;;8.63;2.00;;;18.90;99.90;;;;;;5053562;28;20068;-83
2022/05/25 12:58:55;;;;;;;10.50;1.73;;;19.30;99.90;;;;;;5054457;28;20052;-82
2022/05/25 13:01:23;;;;;;;5.32;1.58;;;19.60;99.90;;;;;;5041519;28;20057;-89
2022/05/25 13:03:50;;;;;;;7.38;1.50;;;19.70;99.90;;;;;;5037440;28;20049;-86
2022/05/25 13:06:46;;;;;;;10.05;1.25;;;19.60;99.90;;;;;;5054119;28;20049;-87
2022/05/25 13:09:17;;;;;;;8.05;1.38;;;19.50;99.90;;;;;;5026540;28;20044;-87
2022/05/25 13:11:48;;;;;;;7.57;1.45;;;19.30;99.90;;;;;;5053514;28;20045;-84
2022/05/25 13:17:53;;;;;;;5.90;1.48;;;18.60;99.90;;;;;;5054811;28;20068;-78
2022/05/25 13:20:47;;;;;;;4.88;1.33;;;18.50;99.90;;;;;;5017453;28;20046;-91
2022/05/25 13:23:56;;;;;;;5.50;1.25;;;18.30;99.90;;;;;;5018715;28;20337;-88
2022/05/25 13:26:56;;;;;;;6.72;1.48;;;18.10;99.90;;;;;;5033284;28;20041;-81
2022/05/25 13:30:02;;;;;;;6.93;1.83;;;18.00;99.90;;;;;;5014310;28;20046;-89
2022/05/25 13:32:36;;;;;;;8.23;1.60;;;17.60;99.90;;;;;;5032597;28;20144;-87
2022/05/25 13:35:24;;;;;;;9.13;1.70;;;18.00;99.90;;;;;;5033367;28;20056;-84
2022/05/25 13:38:14;;;;;;;;;;;18.40;99.90;;;;;;5003807;28;20060;-85
2022/05/25 13:40:57;;;;;;;7.65;1.83;;;18.60;99.90;;;;;;5049892;28;19928;-85
2022/05/25 13:43:43;;;;;;;10.90;1.90;;;19.20;99.90;;;;;;5034276;28;20045;-81
2022/05/25 13:46:13;;;;;;;10.27;1.73;;;20.10;99.90;;;;;;5033386;28;20049;-76
2022/05/25 13:48:52;;;;;;;11.50;2.17;;;20.40;99.90;;;;;;5033673;28;20053;-80
2022/05/25 13:51:21;;;;;;;9.88;1.90;;;20.50;99.90;;;;;;5033807;28;20046;-78
2022/05/25 13:53:49;;;;;;;7.70;1.98;;;20.70;99.90;;;;;;5036973;28;20041;-81
2022/05/25 13:57:12;;;;;;;7.35;2.03;;;20.90;99.90;;;;;;5037242;28;20045;-90
2022/05/25 13:59:51;;;;;;;11.10;2.10;;;20.90;99.90;;;;;;5036820;28;20044;-86
2022/05/25 14:02:32;;;;;;;6.82;1.75;;;20.60;99.90;;;;;;5037822;28;20060;-81
2022/05/25 14:05:06;;;;;;;9.75;2.35;;;20.20;99.90;;;;;;5037808;28;20049;-83